sensor_id;sensor_type;location;lat;lon;timestamp;P1;durP1;ratioP1;P2;durP2;ratioP2
16173;SDS011;14031;50.158;8.626;2023-04-06T00:00:34;4.43;;;4.03;;
16173;SDS011;14031;50.158;8.626;2023-04-06T00:03:01;6.53;;;4.67;;
16173;SDS011;14031;50.158;8.626;2023-04-06T00:05:27;4.43;;;4.03;;
16173;SDS011;14031;50.158;8.626;2023-04-06T00:07:57;6.37;;;4.83;;
16173;SDS011;14031;50.158;8.626;2023-04-06T00:10:24;4.10;;;3.70;;
16173;SDS011;14031;50.158;8.626;2023-04-06T00:12:51;4.70;;;4.30;;
16173;SDS011;14031;50.158;8.626;2023-04-06T00:15:19;4.23;;;3.93;;
16173;SDS011;14031;50.158;8.626;2023-04-06T00:17:47;4.77;;;4.37;;
16173;SDS011;14031;50.158;8.626;2023-04-06T00:20:14;6.53;;;4.47;;
16173;SDS011;14031;50.158;8.626;2023-04-06T00:22:41;5.30;;;4.80;;
16173;SDS011;14031;50.158;8.626;2023-04-06T00:25:08;5.40;;;4.60;;
16173;SDS011;14031;50.158;8.626;2023-04-06T00:27:36;4.17;;;3.90;;
16173;SDS011;14031;50.158;8.626;2023-04-06T00:30:03;4.83;;;4.43;;
16173;SDS011;14031;50.158;8.626;2023-04-06T00:32:31;4.70;;;4.30;;
16173;SDS011;14031;50.158;8.626;2023-04-06T00:35:01;5.07;;;4.60;;
16173;SDS011;14031;50.158;8.626;2023-04-06T00:37:28;4.93;;;4.53;;
16173;SDS011;14031;50.158;8.626;2023-04-06T00:39:55;5.23;;;4.50;;
16173;SDS011;14031;50.158;8.626;2023-04-06T00:42:22;4.87;;;4.47;;
16173;SDS011;14031;50.158;8.626;2023-04-06T00:44:51;4.60;;;4.20;;
16173;SDS011;14031;50.158;8.626;2023-04-06T00:47:19;5.03;;;4.53;;
16173;SDS011;14031;50.158;8.626;2023-04-06T00:49:46;4.77;;;4.33;;
16173;SDS011;14031;50.158;8.626;2023-04-06T00:52:15;6.50;;;4.73;;
16173;SDS011;14031;50.158;8.626;2023-04-06T00:54:41;4.83;;;4.43;;
16173;SDS011;14031;50.158;8.626;2023-04-06T00:57:08;5.43;;;4.50;;
16173;SDS011;14031;50.158;8.626;2023-04-06T00:59:36;6.03;;;4.53;;
16173;SDS011;14031;50.158;8.626;2023-04-06T01:02:03;4.40;;;4.10;;
16173;SDS011;14031;50.158;8.626;2023-04-06T01:04:30;4.50;;;4.10;;
16173;SDS011;14031;50.158;8.626;2023-04-06T01:06:58;6.70;;;3.80;;
16173;SDS011;14031;50.158;8.626;2023-04-06T01:09:26;9.13;;;4.30;;
16173;SDS011;14031;50.158;8.626;2023-04-06T01:11:53;4.40;;;4.10;;
16173;SDS011;14031;50.158;8.626;2023-04-06T01:14:20;4.43;;;4.10;;
16173;SDS011;14031;50.158;8.626;2023-04-06T01:16:47;4.20;;;3.90;;
16173;SDS011;14031;50.158;8.626;2023-04-06T01:19:14;4.67;;;4.27;;
16173;SDS011;14031;50.158;8.626;2023-04-06T01:21:41;6.20;;;4.20;;
16173;SDS011;14031;50.158;8.626;2023-04-06T01:24:10;4.17;;;3.87;;
16173;SDS011;14031;50.158;8.626;2023-04-06T01:26:37;4.10;;;3.80;;
16173;SDS011;14031;50.158;8.626;2023-04-06T01:29:04;5.27;;;4.27;;
16173;SDS011;14031;50.158;8.626;2023-04-06T01:31:31;4.33;;;3.93;;
16173;SDS011;14031;50.158;8.626;2023-04-06T01:33:58;4.17;;;3.87;;
16173;SDS011;14031;50.158;8.626;2023-04-06T01:36:25;4.07;;;3.87;;
16173;SDS011;14031;50.158;8.626;2023-04-06T01:38:52;6.00;;;4.00;;
16173;SDS011;14031;50.158;8.626;2023-04-06T01:41:20;4.53;;;4.23;;
16173;SDS011;14031;50.158;8.626;2023-04-06T01:43:47;4.73;;;4.33;;
16173;SDS011;14031;50.158;8.626;2023-04-06T01:46:14;4.47;;;4.07;;
16173;SDS011;14031;50.158;8.626;2023-04-06T01:48:41;4.23;;;3.93;;
16173;SDS011;14031;50.158;8.626;2023-04-06T01:51:08;5.53;;;4.10;;
16173;SDS011;14031;50.158;8.626;2023-04-06T01:53:35;4.43;;;4.13;;
16173;SDS011;14031;50.158;8.626;2023-04-06T01:56:02;4.23;;;3.93;;
16173;SDS011;14031;50.158;8.626;2023-04-06T01:58:31;5.17;;;4.63;;
16173;SDS011;14031;50.158;8.626;2023-04-06T02:00:58;4.53;;;4.20;;
16173;SDS011;14031;50.158;8.626;2023-04-06T02:03:25;4.73;;;4.40;;
16173;SDS011;14031;50.158;8.626;2023-04-06T02:05:52;4.90;;;4.50;;
16173;SDS011;14031;50.158;8.626;2023-04-06T02:08:19;4.83;;;4.43;;
16173;SDS011;14031;50.158;8.626;2023-04-06T02:10:46;5.27;;;4.77;;
16173;SDS011;14031;50.158;8.626;2023-04-06T02:13:13;5.23;;;4.93;;
16173;SDS011;14031;50.158;8.626;2023-04-06T02:15:41;7.43;;;5.40;;
16173;SDS011;14031;50.158;8.626;2023-04-06T02:18:08;5.83;;;5.43;;
16173;SDS011;14031;50.158;8.626;2023-04-06T02:20:35;5.90;;;5.40;;
16173;SDS011;14031;50.158;8.626;2023-04-06T02:23:02;6.60;;;5.93;;
16173;SDS011;14031;50.158;8.626;2023-04-06T02:25:29;6.67;;;5.50;;
16173;SDS011;14031;50.158;8.626;2023-04-06T02:27:56;5.97;;;5.37;;
16173;SDS011;14031;50.158;8.626;2023-04-06T02:30:23;6.10;;;5.60;;
16173;SDS011;14031;50.158;8.626;2023-04-06T02:32:51;6.33;;;5.83;;
16173;SDS011;14031;50.158;8.626;2023-04-06T02:35:18;6.37;;;5.77;;
16173;SDS011;14031;50.158;8.626;2023-04-06T02:37:44;7.23;;;6.53;;
16173;SDS011;14031;50.158;8.626;2023-04-06T02:40:11;6.27;;;5.43;;
16173;SDS011;14031;50.158;8.626;2023-04-06T02:42:39;6.67;;;6.07;;
16173;SDS011;14031;50.158;8.626;2023-04-06T02:45:07;6.87;;;6.27;;
16173;SDS011;14031;50.158;8.626;2023-04-06T02:47:34;5.87;;;5.37;;
16173;SDS011;14031;50.158;8.626;2023-04-06T02:50:02;6.20;;;5.70;;
16173;SDS011;14031;50.158;8.626;2023-04-06T02:52:30;7.03;;;6.13;;
16173;SDS011;14031;50.158;8.626;2023-04-06T02:54:56;5.50;;;5.17;;
16173;SDS011;14031;50.158;8.626;2023-04-06T02:57:23;6.07;;;5.57;;
16173;SDS011;14031;50.158;8.626;2023-04-06T02:59:50;6.40;;;5.80;;
16173;SDS011;14031;50.158;8.626;2023-04-06T03:02:17;8.00;;;6.00;;
16173;SDS011;14031;50.158;8.626;2023-04-06T03:04:44;6.70;;;5.57;;
16173;SDS011;14031;50.158;8.626;2023-04-06T03:07:12;7.20;;;6.40;;
16173;SDS011;14031;50.158;8.626;2023-04-06T03:09:39;5.97;;;5.53;;
16173;SDS011;14031;50.158;8.626;2023-04-06T03:12:06;7.13;;;6.10;;
16173;SDS011;14031;50.158;8.626;2023-04-06T03:14:33;6.40;;;5.80;;
16173;SDS011;14031;50.158;8.626;2023-04-06T03:17:00;6.83;;;5.33;;
16173;SDS011;14031;50.158;8.626;2023-04-06T03:19:27;6.20;;;5.47;;
16173;SDS011;14031;50.158;8.626;2023-04-06T03:21:54;6.27;;;5.77;;
16173;SDS011;14031;50.158;8.626;2023-04-06T03:24:22;6.37;;;5.80;;
16173;SDS011;14031;50.158;8.626;2023-04-06T03:26:49;6.43;;;5.87;;
16173;SDS011;14031;50.158;8.626;2023-04-06T03:29:16;7.00;;;5.30;;
16173;SDS011;14031;50.158;8.626;2023-04-06T03:31:43;12.00;;;5.80;;
16173;SDS011;14031;50.158;8.626;2023-04-06T03:34:09;5.67;;;5.20;;
16173;SDS011;14031;50.158;8.626;2023-04-06T03:36:36;6.10;;;5.50;;
16173;SDS011;14031;50.158;8.626;2023-04-06T03:39:03;5.83;;;5.33;;
16173;SDS011;14031;50.158;8.626;2023-04-06T03:41:32;6.20;;;5.40;;
16173;SDS011;14031;50.158;8.626;2023-04-06T03:43:59;5.17;;;4.83;;
16173;SDS011;14031;50.158;8.626;2023-04-06T03:46:26;6.13;;;5.53;;
16173;SDS011;14031;50.158;8.626;2023-04-06T03:48:53;6.60;;;5.60;;
16173;SDS011;14031;50.158;8.626;2023-04-06T03:51:20;9.90;;;4.90;;
16173;SDS011;14031;50.158;8.626;2023-04-06T03:53:47;6.83;;;5.30;;
16173;SDS011;14031;50.158;8.626;2023-04-06T03:56:14;7.20;;;5.37;;
16173;SDS011;14031;50.158;8.626;2023-04-06T03:58:42;5.73;;;5.23;;
16173;SDS011;14031;50.158;8.626;2023-04-06T04:01:10;5.20;;;4.73;;
16173;SDS011;14031;50.158;8.626;2023-04-06T04:03:37;5.57;;;5.17;;
16173;SDS011;14031;50.158;8.626;2023-04-06T04:06:03;5.43;;;5.00;;
16173;SDS011;14031;50.158;8.626;2023-04-06T04:08:30;7.23;;;5.07;;
16173;SDS011;14031;50.158;8.626;2023-04-06T04:10:57;7.20;;;5.27;;
16173;SDS011;14031;50.158;8.626;2023-04-06T04:13:24;8.07;;;4.97;;
16173;SDS011;14031;50.158;8.626;2023-04-06T04:15:52;6.47;;;4.77;;
16173;SDS011;14031;50.158;8.626;2023-04-06T04:18:19;5.73;;;5.23;;
16173;SDS011;14031;50.158;8.626;2023-04-06T04:20:46;5.40;;;4.90;;
16173;SDS011;14031;50.158;8.626;2023-04-06T04:23:13;5.80;;;5.07;;
16173;SDS011;14031;50.158;8.626;2023-04-06T04:25:40;5.00;;;4.60;;
16173;SDS011;14031;50.158;8.626;2023-04-06T04:28:07;5.10;;;4.40;;
16173;SDS011;14031;50.158;8.626;2023-04-06T04:30:34;5.00;;;4.60;;
16173;SDS011;14031;50.158;8.626;2023-04-06T04:33:02;7.70;;;4.53;;
16173;SDS011;14031;50.158;8.626;2023-04-06T04:35:29;5.00;;;4.60;;
16173;SDS011;14031;50.158;8.626;2023-04-06T04:37:56;4.90;;;4.50;;
16173;SDS011;14031;50.158;8.626;2023-04-06T04:40:23;5.17;;;4.77;;
16173;SDS011;14031;50.158;8.626;2023-04-06T04:42:49;5.17;;;4.77;;
16173;SDS011;14031;50.158;8.626;2023-04-06T04:45:17;5.80;;;5.00;;
16173;SDS011;14031;50.158;8.626;2023-04-06T04:47:43;5.00;;;4.70;;
16173;SDS011;14031;50.158;8.626;2023-04-06T04:50:12;5.43;;;5.03;;
16173;SDS011;14031;50.158;8.626;2023-04-06T04:52:39;5.20;;;4.80;;
16173;SDS011;14031;50.158;8.626;2023-04-06T04:55:06;5.97;;;5.40;;
16173;SDS011;14031;50.158;8.626;2023-04-06T04:57:33;5.33;;;4.93;;
16173;SDS011;14031;50.158;8.626;2023-04-06T05:00:00;5.70;;;5.30;;
16173;SDS011;14031;50.158;8.626;2023-04-06T05:02:27;6.97;;;5.53;;
16173;SDS011;14031;50.158;8.626;2023-04-06T05:04:54;8.07;;;6.37;;
16173;SDS011;14031;50.158;8.626;2023-04-06T05:07:22;11.70;;;5.70;;
16173;SDS011;14031;50.158;8.626;2023-04-06T05:09:49;10.70;;;6.90;;
16173;SDS011;14031;50.158;8.626;2023-04-06T05:12:16;8.43;;;6.07;;
16173;SDS011;14031;50.158;8.626;2023-04-06T05:14:44;9.33;;;6.60;;
16173;SDS011;14031;50.158;8.626;2023-04-06T05:17:10;7.67;;;6.40;;
16173;SDS011;14031;50.158;8.626;2023-04-06T05:19:37;6.97;;;6.47;;
16173;SDS011;14031;50.158;8.626;2023-04-06T05:22:04;6.57;;;6.00;;
16173;SDS011;14031;50.158;8.626;2023-04-06T05:24:33;6.33;;;5.73;;
16173;SDS011;14031;50.158;8.626;2023-04-06T05:27:00;6.23;;;5.67;;
16173;SDS011;14031;50.158;8.626;2023-04-06T05:29:27;6.60;;;5.97;;
16173;SDS011;14031;50.158;8.626;2023-04-06T05:31:54;7.77;;;6.07;;
16173;SDS011;14031;50.158;8.626;2023-04-06T05:34:20;6.27;;;5.77;;
16173;SDS011;14031;50.158;8.626;2023-04-06T05:36:47;6.13;;;5.73;;
16173;SDS011;14031;50.158;8.626;2023-04-06T05:39:14;6.47;;;5.87;;
16173;SDS011;14031;50.158;8.626;2023-04-06T05:41:43;6.33;;;5.70;;
16173;SDS011;14031;50.158;8.626;2023-04-06T05:44:10;8.17;;;5.70;;
16173;SDS011;14031;50.158;8.626;2023-04-06T05:46:37;7.07;;;5.80;;
16173;SDS011;14031;50.158;8.626;2023-04-06T05:49:04;8.00;;;7.10;;
16173;SDS011;14031;50.158;8.626;2023-04-06T05:51:30;7.33;;;6.73;;
16173;SDS011;14031;50.158;8.626;2023-04-06T05:53:57;6.37;;;5.87;;
16173;SDS011;14031;50.158;8.626;2023-04-06T05:56:25;11.30;;;5.87;;
16173;SDS011;14031;50.158;8.626;2023-04-06T05:58:53;6.77;;;6.27;;
16173;SDS011;14031;50.158;8.626;2023-04-06T06:01:20;7.37;;;6.10;;
16173;SDS011;14031;50.158;8.626;2023-04-06T06:03:47;19.13;;;6.10;;
16173;SDS011;14031;50.158;8.626;2023-04-06T06:06:14;22.07;;;12.67;;
16173;SDS011;14031;50.158;8.626;2023-04-06T06:08:41;19.30;;;11.83;;
16173;SDS011;14031;50.158;8.626;2023-04-06T06:11:08;8.47;;;7.63;;
16173;SDS011;14031;50.158;8.626;2023-04-06T06:13:34;12.03;;;7.17;;
16173;SDS011;14031;50.158;8.626;2023-04-06T06:16:03;10.43;;;8.07;;
16173;SDS011;14031;50.158;8.626;2023-04-06T06:18:30;37.00;;;12.80;;
16173;SDS011;14031;50.158;8.626;2023-04-06T06:20:57;37.73;;;18.37;;
16173;SDS011;14031;50.158;8.626;2023-04-06T06:23:25;46.13;;;22.70;;
16173;SDS011;14031;50.158;8.626;2023-04-06T06:25:52;32.63;;;17.23;;
16173;SDS011;14031;50.158;8.626;2023-04-06T06:28:19;15.23;;;11.33;;
16173;SDS011;14031;50.158;8.626;2023-04-06T06:30:46;17.77;;;11.07;;
16173;SDS011;14031;50.158;8.626;2023-04-06T06:33:14;28.10;;;14.47;;
16173;SDS011;14031;50.158;8.626;2023-04-06T06:35:42;18.33;;;12.90;;
16173;SDS011;14031;50.158;8.626;2023-04-06T06:38:08;14.00;;;11.43;;
16173;SDS011;14031;50.158;8.626;2023-04-06T06:40:35;13.53;;;10.07;;
16173;SDS011;14031;50.158;8.626;2023-04-06T06:43:02;12.07;;;9.60;;
16173;SDS011;14031;50.158;8.626;2023-04-06T06:45:29;11.70;;;9.57;;
16173;SDS011;14031;50.158;8.626;2023-04-06T06:47:56;9.13;;;8.23;;
16173;SDS011;14031;50.158;8.626;2023-04-06T06:50:24;11.97;;;8.80;;
16173;SDS011;14031;50.158;8.626;2023-04-06T06:52:51;11.90;;;8.87;;
16173;SDS011;14031;50.158;8.626;2023-04-06T06:55:18;9.37;;;8.43;;
16173;SDS011;14031;50.158;8.626;2023-04-06T06:57:45;11.50;;;8.83;;
16173;SDS011;14031;50.158;8.626;2023-04-06T07:00:14;11.60;;;9.40;;
16173;SDS011;14031;50.158;8.626;2023-04-06T07:02:41;13.77;;;9.13;;
16173;SDS011;14031;50.158;8.626;2023-04-06T07:05:08;12.17;;;10.20;;
16173;SDS011;14031;50.158;8.626;2023-04-06T07:07:36;15.23;;;9.77;;
16173;SDS011;14031;50.158;8.626;2023-04-06T07:10:04;17.30;;;9.90;;
16173;SDS011;14031;50.158;8.626;2023-04-06T07:12:31;10.57;;;9.40;;
16173;SDS011;14031;50.158;8.626;2023-04-06T07:14:58;18.37;;;10.60;;
16173;SDS011;14031;50.158;8.626;2023-04-06T07:17:25;12.80;;;9.57;;
16173;SDS011;14031;50.158;8.626;2023-04-06T07:19:52;14.97;;;10.50;;
16173;SDS011;14031;50.158;8.626;2023-04-06T07:22:19;13.13;;;10.50;;
16173;SDS011;14031;50.158;8.626;2023-04-06T07:24:47;11.60;;;9.47;;
16173;SDS011;14031;50.158;8.626;2023-04-06T07:27:14;17.17;;;10.03;;
16173;SDS011;14031;50.158;8.626;2023-04-06T07:29:41;12.37;;;9.27;;
16173;SDS011;14031;50.158;8.626;2023-04-06T07:32:08;18.80;;;10.63;;
16173;SDS011;14031;50.158;8.626;2023-04-06T07:34:35;15.40;;;9.60;;
16173;SDS011;14031;50.158;8.626;2023-04-06T07:37:02;15.57;;;10.07;;
16173;SDS011;14031;50.158;8.626;2023-04-06T07:39:29;21.10;;;10.73;;
16173;SDS011;14031;50.158;8.626;2023-04-06T07:41:57;12.37;;;10.03;;
16173;SDS011;14031;50.158;8.626;2023-04-06T07:44:24;13.53;;;10.00;;
16173;SDS011;14031;50.158;8.626;2023-04-06T07:46:51;14.17;;;11.07;;
16173;SDS011;14031;50.158;8.626;2023-04-06T07:49:17;11.10;;;10.00;;
16173;SDS011;14031;50.158;8.626;2023-04-06T07:51:45;13.83;;;9.90;;
16173;SDS011;14031;50.158;8.626;2023-04-06T07:54:12;13.43;;;9.80;;
16173;SDS011;14031;50.158;8.626;2023-04-06T07:56:39;12.70;;;9.43;;
16173;SDS011;14031;50.158;8.626;2023-04-06T07:59:07;11.93;;;9.33;;
16173;SDS011;14031;50.158;8.626;2023-04-06T08:01:36;10.90;;;9.10;;
16173;SDS011;14031;50.158;8.626;2023-04-06T08:04:03;11.33;;;9.83;;
16173;SDS011;14031;50.158;8.626;2023-04-06T08:06:30;11.13;;;9.93;;
16173;SDS011;14031;50.158;8.626;2023-04-06T08:08:57;13.40;;;8.87;;
16173;SDS011;14031;50.158;8.626;2023-04-06T08:11:24;15.20;;;9.90;;
16173;SDS011;14031;50.158;8.626;2023-04-06T08:13:51;11.90;;;9.23;;
16173;SDS011;14031;50.158;8.626;2023-04-06T08:16:20;10.70;;;9.60;;
16173;SDS011;14031;50.158;8.626;2023-04-06T08:18:46;16.90;;;9.70;;
16173;SDS011;14031;50.158;8.626;2023-04-06T08:21:13;11.53;;;9.67;;
16173;SDS011;14031;50.158;8.626;2023-04-06T08:23:40;14.13;;;9.10;;
16173;SDS011;14031;50.158;8.626;2023-04-06T08:26:07;10.50;;;9.40;;
16173;SDS011;14031;50.158;8.626;2023-04-06T08:28:34;12.93;;;10.23;;
16173;SDS011;14031;50.158;8.626;2023-04-06T08:31:03;10.00;;;9.00;;
16173;SDS011;14031;50.158;8.626;2023-04-06T08:33:32;18.53;;;10.40;;
16173;SDS011;14031;50.158;8.626;2023-04-06T08:36:06;14.60;;;10.47;;
16173;SDS011;14031;50.158;8.626;2023-04-06T08:38:37;10.67;;;9.57;;
16173;SDS011;14031;50.158;8.626;2023-04-06T08:41:08;12.13;;;9.53;;
16173;SDS011;14031;50.158;8.626;2023-04-06T08:43:36;10.13;;;9.10;;
16173;SDS011;14031;50.158;8.626;2023-04-06T08:46:09;11.93;;;10.13;;
16173;SDS011;14031;50.158;8.626;2023-04-06T08:48:38;12.97;;;9.87;;
16173;SDS011;14031;50.158;8.626;2023-04-06T08:51:06;11.80;;;10.60;;
16173;SDS011;14031;50.158;8.626;2023-04-06T08:53:33;12.03;;;9.83;;
16173;SDS011;14031;50.158;8.626;2023-04-06T08:56:00;13.70;;;10.57;;
16173;SDS011;14031;50.158;8.626;2023-04-06T08:58:28;11.73;;;9.33;;
16173;SDS011;14031;50.158;8.626;2023-04-06T09:00:58;16.90;;;10.23;;
16173;SDS011;14031;50.158;8.626;2023-04-06T09:03:27;15.93;;;9.53;;
16173;SDS011;14031;50.158;8.626;2023-04-06T09:05:57;10.97;;;9.50;;
16173;SDS011;14031;50.158;8.626;2023-04-06T09:08:25;13.07;;;9.20;;
16173;SDS011;14031;50.158;8.626;2023-04-06T09:10:52;13.70;;;9.27;;
16173;SDS011;14031;50.158;8.626;2023-04-06T09:13:19;12.13;;;9.60;;
16173;SDS011;14031;50.158;8.626;2023-04-06T09:15:46;11.17;;;8.23;;
16173;SDS011;14031;50.158;8.626;2023-04-06T09:18:13;9.60;;;8.70;;
16173;SDS011;14031;50.158;8.626;2023-04-06T09:20:58;10.10;;;8.50;;
16173;SDS011;14031;50.158;8.626;2023-04-06T09:23:26;10.93;;;8.43;;
16173;SDS011;14031;50.158;8.626;2023-04-06T09:26:03;10.67;;;8.60;;
16173;SDS011;14031;50.158;8.626;2023-04-06T09:28:40;11.33;;;8.77;;
16173;SDS011;14031;50.158;8.626;2023-04-06T09:31:11;11.23;;;8.47;;
16173;SDS011;14031;50.158;8.626;2023-04-06T09:33:40;10.63;;;7.63;;
16173;SDS011;14031;50.158;8.626;2023-04-06T09:36:09;8.73;;;7.80;;
16173;SDS011;14031;50.158;8.626;2023-04-06T09:38:37;9.23;;;8.43;;
16173;SDS011;14031;50.158;8.626;2023-04-06T09:41:04;9.40;;;8.50;;
16173;SDS011;14031;50.158;8.626;2023-04-06T09:43:31;11.00;;;8.80;;
16173;SDS011;14031;50.158;8.626;2023-04-06T09:45:58;12.77;;;8.10;;
16173;SDS011;14031;50.158;8.626;2023-04-06T09:48:29;13.80;;;8.33;;
16173;SDS011;14031;50.158;8.626;2023-04-06T09:50:58;10.63;;;8.90;;
16173;SDS011;14031;50.158;8.626;2023-04-06T09:53:30;9.67;;;8.73;;
16173;SDS011;14031;50.158;8.626;2023-04-06T09:56:02;11.03;;;9.20;;
16173;SDS011;14031;50.158;8.626;2023-04-06T09:58:33;13.23;;;9.07;;
16173;SDS011;14031;50.158;8.626;2023-04-06T10:01:05;14.17;;;9.07;;
16173;SDS011;14031;50.158;8.626;2023-04-06T10:03:36;9.93;;;8.33;;
16173;SDS011;14031;50.158;8.626;2023-04-06T10:06:18;11.57;;;8.40;;
16173;SDS011;14031;50.158;8.626;2023-04-06T10:08:51;10.40;;;8.37;;
16173;SDS011;14031;50.158;8.626;2023-04-06T10:11:19;15.80;;;8.43;;
16173;SDS011;14031;50.158;8.626;2023-04-06T10:13:47;9.47;;;8.47;;
16173;SDS011;14031;50.158;8.626;2023-04-06T10:16:15;14.80;;;9.80;;
16173;SDS011;14031;50.158;8.626;2023-04-06T10:18:43;15.77;;;9.33;;
16173;SDS011;14031;50.158;8.626;2023-04-06T10:21:16;10.20;;;9.20;;
16173;SDS011;14031;50.158;8.626;2023-04-06T10:23:48;11.00;;;8.37;;
16173;SDS011;14031;50.158;8.626;2023-04-06T10:26:19;14.07;;;9.30;;
16173;SDS011;14031;50.158;8.626;2023-04-06T10:28:47;9.67;;;8.33;;
16173;SDS011;14031;50.158;8.626;2023-04-06T10:31:23;9.63;;;8.50;;
16173;SDS011;14031;50.158;8.626;2023-04-06T10:33:53;12.20;;;8.87;;
16173;SDS011;14031;50.158;8.626;2023-04-06T10:36:22;11.27;;;8.37;;
16173;SDS011;14031;50.158;8.626;2023-04-06T10:38:53;13.00;;;7.77;;
16173;SDS011;14031;50.158;8.626;2023-04-06T10:41:23;9.97;;;8.07;;
16173;SDS011;14031;50.158;8.626;2023-04-06T10:43:54;9.93;;;8.13;;
16173;SDS011;14031;50.158;8.626;2023-04-06T10:46:24;11.53;;;7.97;;
16173;SDS011;14031;50.158;8.626;2023-04-06T10:48:52;10.33;;;8.00;;
16173;SDS011;14031;50.158;8.626;2023-04-06T10:51:19;11.33;;;8.70;;
16173;SDS011;14031;50.158;8.626;2023-04-06T10:53:52;19.43;;;8.83;;
16173;SDS011;14031;50.158;8.626;2023-04-06T10:56:21;8.87;;;7.47;;
16173;SDS011;14031;50.158;8.626;2023-04-06T10:58:53;8.07;;;7.20;;
16173;SDS011;14031;50.158;8.626;2023-04-06T11:01:22;8.57;;;7.67;;
16173;SDS011;14031;50.158;8.626;2023-04-06T11:03:51;9.30;;;8.20;;
16173;SDS011;14031;50.158;8.626;2023-04-06T11:06:20;10.67;;;8.13;;
16173;SDS011;14031;50.158;8.626;2023-04-06T11:08:48;8.60;;;7.50;;
16173;SDS011;14031;50.158;8.626;2023-04-06T11:11:16;9.03;;;7.30;;
16173;SDS011;14031;50.158;8.626;2023-04-06T11:13:48;9.07;;;7.87;;
16173;SDS011;14031;50.158;8.626;2023-04-06T11:16:16;10.13;;;8.13;;
16173;SDS011;14031;50.158;8.626;2023-04-06T11:18:47;11.30;;;8.27;;
16173;SDS011;14031;50.158;8.626;2023-04-06T11:21:18;11.90;;;8.43;;
16173;SDS011;14031;50.158;8.626;2023-04-06T11:23:46;13.90;;;8.93;;
16173;SDS011;14031;50.158;8.626;2023-04-06T11:26:13;10.23;;;7.77;;
16173;SDS011;14031;50.158;8.626;2023-04-06T11:28:41;9.10;;;8.20;;
16173;SDS011;14031;50.158;8.626;2023-04-06T11:31:10;9.20;;;8.20;;
16173;SDS011;14031;50.158;8.626;2023-04-06T11:33:37;9.47;;;8.47;;
16173;SDS011;14031;50.158;8.626;2023-04-06T11:36:05;9.70;;;8.73;;
16173;SDS011;14031;50.158;8.626;2023-04-06T11:38:33;11.80;;;8.70;;
16173;SDS011;14031;50.158;8.626;2023-04-06T11:41:00;16.03;;;8.57;;
16173;SDS011;14031;50.158;8.626;2023-04-06T11:43:28;14.73;;;8.90;;
16173;SDS011;14031;50.158;8.626;2023-04-06T11:46:01;11.20;;;7.90;;
16173;SDS011;14031;50.158;8.626;2023-04-06T11:48:30;12.67;;;8.13;;
16173;SDS011;14031;50.158;8.626;2023-04-06T11:50:58;10.77;;;8.40;;
16173;SDS011;14031;50.158;8.626;2023-04-06T11:53:26;12.83;;;8.93;;
16173;SDS011;14031;50.158;8.626;2023-04-06T11:55:54;11.20;;;8.50;;
16173;SDS011;14031;50.158;8.626;2023-04-06T11:58:21;14.07;;;9.30;;
16173;SDS011;14031;50.158;8.626;2023-04-06T12:00:48;9.40;;;8.13;;
16173;SDS011;14031;50.158;8.626;2023-04-06T12:03:15;10.43;;;9.00;;
16173;SDS011;14031;50.158;8.626;2023-04-06T12:05:43;16.80;;;9.17;;
16173;SDS011;14031;50.158;8.626;2023-04-06T12:08:10;11.87;;;8.90;;
16173;SDS011;14031;50.158;8.626;2023-04-06T12:10:37;11.23;;;8.77;;
16173;SDS011;14031;50.158;8.626;2023-04-06T12:13:04;11.20;;;9.07;;
16173;SDS011;14031;50.158;8.626;2023-04-06T12:15:31;10.20;;;8.53;;
16173;SDS011;14031;50.158;8.626;2023-04-06T12:17:58;10.53;;;8.27;;
16173;SDS011;14031;50.158;8.626;2023-04-06T12:20:25;10.10;;;8.57;;
16173;SDS011;14031;50.158;8.626;2023-04-06T12:22:53;9.87;;;8.87;;
16173;SDS011;14031;50.158;8.626;2023-04-06T12:25:20;15.10;;;8.97;;
16173;SDS011;14031;50.158;8.626;2023-04-06T12:27:47;11.17;;;8.90;;
16173;SDS011;14031;50.158;8.626;2023-04-06T12:30:15;11.73;;;7.83;;
16173;SDS011;14031;50.158;8.626;2023-04-06T12:32:42;10.00;;;8.97;;
16173;SDS011;14031;50.158;8.626;2023-04-06T12:35:09;13.30;;;8.40;;
16173;SDS011;14031;50.158;8.626;2023-04-06T12:37:36;9.33;;;8.17;;
16173;SDS011;14031;50.158;8.626;2023-04-06T12:40:06;9.60;;;7.40;;
16173;SDS011;14031;50.158;8.626;2023-04-06T12:42:35;10.50;;;7.47;;
16173;SDS011;14031;50.158;8.626;2023-04-06T12:45:02;11.13;;;7.90;;
16173;SDS011;14031;50.158;8.626;2023-04-06T12:47:30;8.53;;;7.73;;
16173;SDS011;14031;50.158;8.626;2023-04-06T12:49:57;8.90;;;7.87;;
16173;SDS011;14031;50.158;8.626;2023-04-06T12:52:24;7.97;;;7.27;;
16173;SDS011;14031;50.158;8.626;2023-04-06T12:54:52;8.73;;;7.68;;
16173;SDS011;14031;50.158;8.626;2023-04-06T12:57:20;9.90;;;7.50;;
16173;SDS011;14031;50.158;8.626;2023-04-06T12:59:47;10.90;;;8.13;;
16173;SDS011;14031;50.158;8.626;2023-04-06T13:02:14;9.60;;;7.60;;
16173;SDS011;14031;50.158;8.626;2023-04-06T13:04:41;8.53;;;7.73;;
16173;SDS011;14031;50.158;8.626;2023-04-06T13:07:08;8.40;;;7.60;;
16173;SDS011;14031;50.158;8.626;2023-04-06T13:09:34;8.67;;;7.93;;
16173;SDS011;14031;50.158;8.626;2023-04-06T13:12:01;9.37;;;7.73;;
16173;SDS011;14031;50.158;8.626;2023-04-06T13:14:30;12.50;;;8.13;;
16173;SDS011;14031;50.158;8.626;2023-04-06T13:16:57;9.73;;;8.50;;
16173;SDS011;14031;50.158;8.626;2023-04-06T13:19:24;8.17;;;7.40;;
16173;SDS011;14031;50.158;8.626;2023-04-06T13:21:51;7.83;;;7.13;;
16173;SDS011;14031;50.158;8.626;2023-04-06T13:24:18;7.70;;;6.70;;
16173;SDS011;14031;50.158;8.626;2023-04-06T13:26:46;8.60;;;7.60;;
16173;SDS011;14031;50.158;8.626;2023-04-06T13:29:13;7.23;;;6.53;;
16173;SDS011;14031;50.158;8.626;2023-04-06T13:31:42;6.80;;;6.10;;
16173;SDS011;14031;50.158;8.626;2023-04-06T13:34:09;7.60;;;6.77;;
16173;SDS011;14031;50.158;8.626;2023-04-06T13:36:36;7.10;;;6.40;;
16173;SDS011;14031;50.158;8.626;2023-04-06T13:39:05;9.43;;;6.53;;
16173;SDS011;14031;50.158;8.626;2023-04-06T13:41:32;6.72;;;6.13;;
16173;SDS011;14031;50.158;8.626;2023-04-06T13:43:59;5.95;;;5.55;;
16173;SDS011;14031;50.158;8.626;2023-04-06T13:46:27;8.57;;;7.68;;
16173;SDS011;14031;50.158;8.626;2023-04-06T13:48:55;7.43;;;6.83;;
16173;SDS011;14031;50.158;8.626;2023-04-06T13:51:22;7.17;;;6.50;;
16173;SDS011;14031;50.158;8.626;2023-04-06T13:53:49;7.43;;;6.72;;
16173;SDS011;14031;50.158;8.626;2023-04-06T13:56:17;11.98;;;7.55;;
16173;SDS011;14031;50.158;8.626;2023-04-06T13:58:44;8.48;;;7.45;;
16173;SDS011;14031;50.158;8.626;2023-04-06T14:01:11;8.45;;;7.65;;
16173;SDS011;14031;50.158;8.626;2023-04-06T14:03:38;10.07;;;7.95;;
16173;SDS011;14031;50.158;8.626;2023-04-06T14:06:11;7.50;;;6.80;;
16173;SDS011;14031;50.158;8.626;2023-04-06T14:08:38;7.78;;;7.00;;
16173;SDS011;14031;50.158;8.626;2023-04-06T14:11:06;6.88;;;6.38;;
16173;SDS011;14031;50.158;8.626;2023-04-06T14:13:36;7.25;;;6.65;;
16173;SDS011;14031;50.158;8.626;2023-04-06T14:16:03;9.88;;;7.05;;
16173;SDS011;14031;50.158;8.626;2023-04-06T14:18:31;7.45;;;6.85;;
16173;SDS011;14031;50.158;8.626;2023-04-06T14:20:59;7.22;;;6.63;;
16173;SDS011;14031;50.158;8.626;2023-04-06T14:23:28;7.65;;;7.05;;
16173;SDS011;14031;50.158;8.626;2023-04-06T14:26:00;7.88;;;7.00;;
16173;SDS011;14031;50.158;8.626;2023-04-06T14:28:28;7.78;;;7.07;;
16173;SDS011;14031;50.158;8.626;2023-04-06T14:30:55;8.18;;;7.35;;
16173;SDS011;14031;50.158;8.626;2023-04-06T14:33:23;6.50;;;5.93;;
16173;SDS011;14031;50.158;8.626;2023-04-06T14:35:49;6.90;;;6.40;;
16173;SDS011;14031;50.158;8.626;2023-04-06T14:38:16;6.60;;;6.10;;
16173;SDS011;14031;50.158;8.626;2023-04-06T14:40:44;8.50;;;6.65;;
16173;SDS011;14031;50.158;8.626;2023-04-06T14:43:11;6.50;;;5.67;;